aviador You're here:

KEST Decoded Metar

ESTHERVILLE in IA, USA
Report Time2017-06-29 06:52:00
UTC Time2017-06-29 07:12:12
Flight Rules vfr VFR
Wind320° at 08 kt
W.Decomp.*RWY 34: 7.2 kt HW 3.5 kt LCW
RWY 24: 2.2 kt HW 7.7 kt RCW
W.Rank320° ranks 7
Current wind is below 320° avg. (11.3)
Visibility9999 m
Phenomena:N/A
Clouds:N/A
Expected CloudBase > 400 ft AGL from Temp-Dew spread
CeilingNone
Temp18°C (ISA +6)
Dew Point17°C (94% RH)
AAT17.5°C
QNH1006 hPa
Density Alt2,474 ft
Elevation1,316 ft
Report Wrong Elevation
Raw Report
METAR KEST 290652Z AUTO 32008KT 10SM CLR 18/17 A2970 RMK AO2 SLP051
T01780167=

Extra information for KEST:More info

Metar Taf Metar & Taf Last 4 Metars F.Rules Stats Wind Profile Meteogram Temp Stats Airport Information Weather charts Add Link Nearby VenuesMetar ALERT Operation Metar Decoded Social comments

AIRNAV info for KEST